NWS Home NWS Lubbock West Texas Mesonet South Sector Latest Conditions as of 0846 PM, Wed Jul 08, 2020

Latest   N   C   S   Daily Sum   3hrΔ   24hrΔ   Soil Data 
Site Map   24hr Precip   72hr Precip   Google Plot


Station Time of Last Temp Dew Pt. RH Wind Direction Wind Speed Wind Gust Max Wind Max Temp Min Temp Max RH Min RH Altimeter 1HR Rain Today's Rain Solar Rad
Andrews 2E  08:40 PM 97 54 25% S914 22 mph 186° @ 1045 AM 103 69 78 21 29.86" 0 0.00 43
Aspermont 3NE  08:40 PM 95 69 45% SE1424 24 mph 147° @ 0840 PM 101 68 98 31 29.79" 0 0.00 17
Big Bend NP - Castolon  08:40 PM 104 54 19% NE24 16 mph 154° @ 0543 PM 106 77 74 18 29.74" 0 0.00 11
Big Bend NP - Persimmon Gap  08:40 PM 96 58 29% E1014 23 mph 56° @ 0651 PM 104 77 59 17 29.84" 0 0.00 8
Big Lake 1WNW  08:40 PM 93 62 36% SE913 30 mph 169° @ 0416 PM 99 72 90 27 29.88" 0 0.00 18
Brownfield 2S  08:40 PM 94 55 29% SE1418 25 mph 165° @ 0600 PM 102 68 82 22 29.86" 0 0.00 17
Clyde 2WNW  08:40 PM 87 69 56% S911 20 mph 216° @ 1001 AM 96 69 96 42 29.86" 0 0.00 10
Colorado City 5NW  08:40 PM 93 65 40% SE1215 21 mph 171° @ 0443 PM 102 69 95 27 29.83" 0 0.00 17
Coyanosa 2N  08:40 PM 98 55 24% SE1314 23 mph 115° @ 0803 PM 106 72 67 17 29.81" 0 0.00 8
Crane 1NNW   08:40 PM 97 59 29% S1517 23 mph 172° @ 0918 AM 104 72 77 22 29.83" 0 0.00 21
Dell City  08:40 PM 95 53 25% SE44 12 mph 120° @ 0153 PM 106 65 77 14 29.87" 0 0.00 29
Denver City 7WNW  08:40 PM 95 47 20% SE913 23 mph 188° @ 1245 PM 101 66 84 15 29.87" 0 0.00 59
Doole 3WNW  08:40 PM 87 71 59% SE56 37 mph 268° @ 0525 PM 100 68 98 35 29.83" 0 0.00 17
Fluvanna 3WNW  08:40 PM 92 61 38% SE1014 20 mph 157° @ 0705 PM 99 69 91 25 29.84" 0 0.00 20
Fort Chadbourne  08:40 PM 87 68 53% SE68 28 mph 130° @ 0623 PM 101 68 100 32 29.85" 0 0.00 14
Fort Lancaster  08:40 PM 95 64 36% SE1113 23 mph 139° @ 0115 PM 101 73 89 27 29.83" 0 0.00 13
Fort McKavett  08:40 PM 93 66 42% SE69 19 mph 181° @ 0306 PM 99 72 95 35 29.87" 0 0.00 104
Gail 2ESE  08:40 PM 94 56 30% SE79 21 mph 183° @ 0250 PM 101 68 93 22 29.82" 0 0.00 19
Graham 5SSW  08:40 PM 94 54 28% SE1114 23 mph 179° @ 0345 PM 98 68 91 22 29.85" 0 0.00 16
Guadalupe Mtns Natl Park  08:40 PM 84 51 33% E56 30 mph 342° @ 0426 PM 95 66 64 20 30.08" 0 0.00 12
Haskell 1NW  08:40 PM 93 68 46% SE1015 21 mph 200° @ 0310 PM 99 72 86 35 29.79" 0 0.00 15
Hobbs NM 5NW  08:40 PM 96 45 17% S810 22 mph 222° @ 0214 PM 102 70 62 14 29.90" 0 0.00 41
Jayton 1SSE  08:40 PM 94 66 42% SE1216 22 mph 192° @ 0430 PM 103 68 92 22 29.80" 0 0.00 22
Junction 1SSW  08:40 PM 92 65 40% SE810 19 mph 199° @ 0155 PM 100 70 100 34 29.86" 0 0.00 9
Kent 9E  08:40 PM 94 52 24% W57 21 mph 203° @ 0318 PM 101 67 55 19 29.93" 0 0.00 36
Lake Alan Henry 1NW  08:40 PM 95 64 36% SE811 23 mph 211° @ 0332 PM 103 71 86 22 29.81" 0 0.00 18
Lamesa 2SE  08:40 PM 94 54 27% SE1014 24 mph 187° @ 1150 AM 101 70 85 20 29.85" 0 0.00 14
Lomax 1SSE  08:40 PM 96 59 29% SE1517 21 mph 152° @ 0826 PM 103 72 85 20 29.83" 0 0.00 12
McCamey 1SSW  08:40 PM 96 61 31% SE1416 23 mph 147° @ 0656 PM 103 76 74 25 29.84" 0 0.00 12
Menard 2NW   08:40 PM 90 68 49% SE912 21 mph 142° @ 0517 PM 99 72 100 34 29.87" 0 0.00 22
Mertzon 3NNE  08:40 PM 92 65 42% S56 22 mph 165° @ 1258 PM 99 66 100 32 29.86" 0 0.00 12
New Home  08:40 PM 93 57 30% SE79 24 mph 195° @ 0512 PM 101 68 87 23 29.88" 0 0.00 22
O'Donnell 1N  08:40 PM 93 57 32% SE68 21 mph 197° @ 0215 PM 99 69 88 24 29.86" 0 0.00 12
Plains 3N  08:40 PM 96 54 25% SE1624 24 mph 152° @ 0835 PM 102 70 74 19 29.87" 0 0.00 65
Post 1NE  08:40 PM 92 56 30% SE79 20 mph 175° @ 0105 PM 101 70 87 21 29.83" 0 0.00 16
Rotan 5W  08:40 PM 96 64 35% SE1518 27 mph 188° @ 0428 PM 104 70 85 21 29.82" 0 0.00 17
San Angelo 7NW  08:40 PM 90 65 45% SE914 20 mph 178° @ 0225 PM 99 69 98 31 29.84" 0 0.00 14
Seagraves 1SW  08:40 PM 94 57 30% SE1015 22 mph 163° @ 0230 PM 102 69 80 22 29.86" 0 0.00 42
Segovia 7SSW  08:40 PM 90 63 41% SE1113 22 mph 140° @ 1239 PM 97 75 88 35 29.90" 0 0.00 5
Seminole 2NNE  08:40 PM 93 52 25% SE1418 24 mph 157° @ 0435 PM 102 68 78 18 29.85" 0 0.00 35
Sierra Blanca 1SSE  08:40 PM 91 52 27% S67 23 mph 146° @ 0649 PM 103 71 54 16 29.97" 0 0.00 18
Snyder 3E  08:40 PM 92 63 40% SE1218 25 mph 144° @ 0615 PM 100 70 93 29 29.83" 0 0.00 16
Snyder 3SSW  08:40 PM 94 65 38% SE1214 25 mph 162° @ 0314 PM 102 70 95 25 29.83" 0 0.00 17
St. Lawrence 5SW  08:40 PM 95 59 31% SE1619 23 mph 173° @ 0910 AM 101 70 86 24 29.86" 0 0.00 18
Stamford 5ESE  08:40 PM 93 69 46% SE1114 24 mph 165° @ 0431 PM 101 70 91 32 29.80" 0 0.00 12
Sterling City 4WSW  08:40 PM 94 60 32% SE810 24 mph 168° @ 1256 PM 101 66 100 26 29.85" 0 0.00 10
Sundown 8WSW  08:40 PM 95 51 24% SE1722 27 mph 185° @ 0410 PM 103 66 80 17 29.87" 0 0.00 51
Sweetwater 11SW   08:40 PM 89 65 46% SE1519 25 mph 168° @ 0915 AM 99 71 89 27 29.87" 0 0.00 15
Tahoka 3NNE  08:40 PM 93 56 28% SE1214 24 mph 196° @ 1042 AM 102 68 85 22 29.86" 0 0.00 13
Tarzan 2WNW  08:40 PM 95 60 32% SE810 19 mph 145° @ 0653 PM 102 71 88 23 29.85" 0 0.00 14
Tatum NM 2SW  08:40 PM 95 45 19% SE1317 22 mph 177° @ 0845 AM 102 64 83 14 29.89" 0 0.00 59
Throckmorton 1SW  08:40 PM 92 71 51% SE913 19 mph 147° @ 0654 PM 100 70 100 36 29.80" 0 0.00 10
Van Horn 3ENE  08:40 PM 96 51 22% SE810 25 mph 279° @ 0501 PM 102 71 66 15 29.92" 0 0.00 67
Wall 2E  08:40 PM 89 68 50% SE1520 27 mph 103° @ 0621 PM 100 69 100 33 29.85" 0 0.00 15
Weinert 2NNE  08:40 PM 94 69 43% S1112 23 mph 178° @ 0536 PM 102 71 88 32 29.79" 0 0.00 12
Welch  08:40 PM 93 58 31% SE1315 23 mph 162° @ 0607 PM 101 67 100 23 29.86" 0 0.00 24

West Texas Mesonet Home   Site Map/Menu  NWS Lubbock Soil Data  Daily Summary Page  24hr Precip  72hr Precip  Google Plot